sensor_id;sensor_type;location;lat;lon;timestamp;P1;durP1;ratioP1;P2;durP2;ratioP2
54849;SDS011;47660;51.334;12.396;2024-02-26T00:01:49;11.05;;;4.45;;
54849;SDS011;47660;51.334;12.396;2024-02-26T00:04:14;9.77;;;4.45;;
54849;SDS011;47660;51.334;12.396;2024-02-26T00:06:39;8.05;;;4.07;;
54849;SDS011;47660;51.334;12.396;2024-02-26T00:09:08;7.68;;;4.68;;
54849;SDS011;47660;51.334;12.396;2024-02-26T00:11:36;9.77;;;4.70;;
54849;SDS011;47660;51.334;12.396;2024-02-26T00:14:02;10.25;;;4.93;;
54849;SDS011;47660;51.334;12.396;2024-02-26T00:16:27;8.73;;;4.55;;
54849;SDS011;47660;51.334;12.396;2024-02-26T00:18:52;10.50;;;4.85;;
54849;SDS011;47660;51.334;12.396;2024-02-26T00:21:17;10.50;;;5.07;;
54849;SDS011;47660;51.334;12.396;2024-02-26T00:23:43;10.18;;;5.32;;
54849;SDS011;47660;51.334;12.396;2024-02-26T00:26:08;10.10;;;5.40;;
54849;SDS011;47660;51.334;12.396;2024-02-26T00:28:35;13.38;;;5.82;;
54849;SDS011;47660;51.334;12.396;2024-02-26T00:31:01;10.02;;;5.68;;
54849;SDS011;47660;51.334;12.396;2024-02-26T00:33:27;12.00;;;5.55;;
54849;SDS011;47660;51.334;12.396;2024-02-26T00:35:52;12.40;;;5.55;;
54849;SDS011;47660;51.334;12.396;2024-02-26T00:38:18;12.48;;;5.70;;
54849;SDS011;47660;51.334;12.396;2024-02-26T00:40:43;13.60;;;5.70;;
54849;SDS011;47660;51.334;12.396;2024-02-26T00:43:08;13.90;;;5.63;;
54849;SDS011;47660;51.334;12.396;2024-02-26T00:45:34;14.90;;;5.75;;
54849;SDS011;47660;51.334;12.396;2024-02-26T00:47:59;11.13;;;5.15;;
54849;SDS011;47660;51.334;12.396;2024-02-26T00:50:30;15.95;;;6.22;;
54849;SDS011;47660;51.334;12.396;2024-02-26T00:52:56;12.65;;;5.75;;
54849;SDS011;47660;51.334;12.396;2024-02-26T00:55:22;11.00;;;5.28;;
54849;SDS011;47660;51.334;12.396;2024-02-26T00:57:47;11.20;;;5.20;;
54849;SDS011;47660;51.334;12.396;2024-02-26T01:00:12;16.95;;;5.97;;
54849;SDS011;47660;51.334;12.396;2024-02-26T01:02:38;12.75;;;5.07;;
54849;SDS011;47660;51.334;12.396;2024-02-26T01:05:04;15.05;;;5.55;;
54849;SDS011;47660;51.334;12.396;2024-02-26T01:07:31;11.65;;;5.82;;
54849;SDS011;47660;51.334;12.396;2024-02-26T01:10:00;14.88;;;6.10;;
54849;SDS011;47660;51.334;12.396;2024-02-26T01:12:26;12.68;;;5.10;;
54849;SDS011;47660;51.334;12.396;2024-02-26T01:14:54;12.93;;;6.53;;
54849;SDS011;47660;51.334;12.396;2024-02-26T01:17:20;11.30;;;5.50;;
54849;SDS011;47660;51.334;12.396;2024-02-26T01:19:45;11.75;;;5.35;;
54849;SDS011;47660;51.334;12.396;2024-02-26T01:22:11;13.38;;;5.72;;
54849;SDS011;47660;51.334;12.396;2024-02-26T01:24:36;13.25;;;5.70;;
54849;SDS011;47660;51.334;12.396;2024-02-26T01:27:01;14.02;;;6.65;;
54849;SDS011;47660;51.334;12.396;2024-02-26T01:29:27;12.88;;;5.75;;
54849;SDS011;47660;51.334;12.396;2024-02-26T01:31:52;10.95;;;5.55;;
54849;SDS011;47660;51.334;12.396;2024-02-26T01:34:17;12.88;;;6.03;;
54849;SDS011;47660;51.334;12.396;2024-02-26T01:36:43;15.25;;;6.80;;
54849;SDS011;47660;51.334;12.396;2024-02-26T01:39:08;13.43;;;6.28;;
54849;SDS011;47660;51.334;12.396;2024-02-26T01:41:37;12.25;;;5.88;;
54849;SDS011;47660;51.334;12.396;2024-02-26T01:44:03;14.88;;;6.43;;
54849;SDS011;47660;51.334;12.396;2024-02-26T01:46:29;14.35;;;6.20;;
54849;SDS011;47660;51.334;12.396;2024-02-26T01:48:55;9.68;;;5.35;;
54849;SDS011;47660;51.334;12.396;2024-02-26T01:51:20;14.13;;;6.88;;
54849;SDS011;47660;51.334;12.396;2024-02-26T01:53:47;17.55;;;7.22;;
54849;SDS011;47660;51.334;12.396;2024-02-26T01:56:12;17.77;;;6.85;;
54849;SDS011;47660;51.334;12.396;2024-02-26T01:58:40;15.35;;;6.60;;
54849;SDS011;47660;51.334;12.396;2024-02-26T02:01:06;14.63;;;6.72;;
54849;SDS011;47660;51.334;12.396;2024-02-26T02:03:32;12.80;;;6.20;;
54849;SDS011;47660;51.334;12.396;2024-02-26T02:05:58;14.68;;;6.60;;
54849;SDS011;47660;51.334;12.396;2024-02-26T02:08:23;12.40;;;6.20;;
54849;SDS011;47660;51.334;12.396;2024-02-26T02:10:49;15.57;;;6.15;;
54849;SDS011;47660;51.334;12.396;2024-02-26T02:13:14;12.35;;;5.78;;
54849;SDS011;47660;51.334;12.396;2024-02-26T02:15:40;14.00;;;6.45;;
54849;SDS011;47660;51.334;12.396;2024-02-26T02:18:05;12.10;;;5.72;;
54849;SDS011;47660;51.334;12.396;2024-02-26T02:20:31;11.15;;;5.57;;
54849;SDS011;47660;51.334;12.396;2024-02-26T02:23:00;16.88;;;6.75;;
54849;SDS011;47660;51.334;12.396;2024-02-26T02:25:26;11.73;;;5.65;;
54849;SDS011;47660;51.334;12.396;2024-02-26T02:27:53;14.43;;;5.43;;
54849;SDS011;47660;51.334;12.396;2024-02-26T02:30:20;14.27;;;6.43;;
54849;SDS011;47660;51.334;12.396;2024-02-26T02:32:49;12.02;;;5.72;;
54849;SDS011;47660;51.334;12.396;2024-02-26T02:35:14;13.18;;;5.70;;
54849;SDS011;47660;51.334;12.396;2024-02-26T02:37:39;9.85;;;5.32;;
54849;SDS011;47660;51.334;12.396;2024-02-26T02:40:05;13.88;;;5.72;;
54849;SDS011;47660;51.334;12.396;2024-02-26T02:42:31;11.93;;;5.35;;
54849;SDS011;47660;51.334;12.396;2024-02-26T02:44:56;11.35;;;5.50;;
54849;SDS011;47660;51.334;12.396;2024-02-26T02:47:21;12.00;;;5.95;;
54849;SDS011;47660;51.334;12.396;2024-02-26T02:49:47;12.50;;;5.90;;
54849;SDS011;47660;51.334;12.396;2024-02-26T02:52:12;11.00;;;5.53;;
54849;SDS011;47660;51.334;12.396;2024-02-26T02:54:37;13.27;;;5.72;;
54849;SDS011;47660;51.334;12.396;2024-02-26T02:57:05;9.65;;;5.15;;
54849;SDS011;47660;51.334;12.396;2024-02-26T02:59:30;12.18;;;5.70;;
54849;SDS011;47660;51.334;12.396;2024-02-26T03:01:56;12.98;;;5.47;;
54849;SDS011;47660;51.334;12.396;2024-02-26T03:04:21;11.48;;;5.72;;
54849;SDS011;47660;51.334;12.396;2024-02-26T03:06:46;12.93;;;5.70;;
54849;SDS011;47660;51.334;12.396;2024-02-26T03:09:12;11.20;;;5.15;;
54849;SDS011;47660;51.334;12.396;2024-02-26T03:11:37;10.15;;;5.30;;
54849;SDS011;47660;51.334;12.396;2024-02-26T03:14:02;11.13;;;4.90;;
54849;SDS011;47660;51.334;12.396;2024-02-26T03:16:28;11.48;;;4.97;;
54849;SDS011;47660;51.334;12.396;2024-02-26T03:18:53;9.48;;;4.63;;
54849;SDS011;47660;51.334;12.396;2024-02-26T03:21:18;10.10;;;5.03;;
54849;SDS011;47660;51.334;12.396;2024-02-26T03:23:43;13.32;;;5.53;;
54849;SDS011;47660;51.334;12.396;2024-02-26T03:26:09;10.20;;;5.38;;
54849;SDS011;47660;51.334;12.396;2024-02-26T03:28:38;9.30;;;4.75;;
54849;SDS011;47660;51.334;12.396;2024-02-26T03:31:03;10.50;;;5.95;;
54849;SDS011;47660;51.334;12.396;2024-02-26T03:33:29;8.38;;;4.80;;
54849;SDS011;47660;51.334;12.396;2024-02-26T03:35:54;13.13;;;5.88;;
54849;SDS011;47660;51.334;12.396;2024-02-26T03:38:19;12.57;;;5.70;;
54849;SDS011;47660;51.334;12.396;2024-02-26T03:40:44;13.35;;;6.78;;
54849;SDS011;47660;51.334;12.396;2024-02-26T03:43:10;12.10;;;5.78;;
54849;SDS011;47660;51.334;12.396;2024-02-26T03:45:35;11.98;;;6.45;;
54849;SDS011;47660;51.334;12.396;2024-02-26T03:48:00;16.02;;;6.60;;
54849;SDS011;47660;51.334;12.396;2024-02-26T03:50:25;11.80;;;5.82;;
54849;SDS011;47660;51.334;12.396;2024-02-26T03:52:51;13.15;;;7.03;;
54849;SDS011;47660;51.334;12.396;2024-02-26T03:55:16;13.18;;;6.55;;
54849;SDS011;47660;51.334;12.396;2024-02-26T03:57:45;13.95;;;7.40;;
54849;SDS011;47660;51.334;12.396;2024-02-26T04:00:11;17.73;;;6.88;;
54849;SDS011;47660;51.334;12.396;2024-02-26T04:02:37;17.70;;;7.50;;
54849;SDS011;47660;51.334;12.396;2024-02-26T04:05:02;19.23;;;7.60;;
54849;SDS011;47660;51.334;12.396;2024-02-26T04:07:27;17.77;;;8.40;;
54849;SDS011;47660;51.334;12.396;2024-02-26T04:09:53;17.15;;;7.93;;
54849;SDS011;47660;51.334;12.396;2024-02-26T04:12:18;19.20;;;8.38;;
54849;SDS011;47660;51.334;12.396;2024-02-26T04:14:43;13.80;;;7.30;;
54849;SDS011;47660;51.334;12.396;2024-02-26T04:17:09;17.52;;;7.97;;
54849;SDS011;47660;51.334;12.396;2024-02-26T04:19:35;16.45;;;8.27;;
54849;SDS011;47660;51.334;12.396;2024-02-26T04:22:01;17.17;;;8.00;;
54849;SDS011;47660;51.334;12.396;2024-02-26T04:24:26;20.15;;;8.73;;
54849;SDS011;47660;51.334;12.396;2024-02-26T04:26:51;21.58;;;10.20;;
54849;SDS011;47660;51.334;12.396;2024-02-26T04:29:17;18.77;;;8.05;;
54849;SDS011;47660;51.334;12.396;2024-02-26T04:31:42;15.45;;;8.38;;
54849;SDS011;47660;51.334;12.396;2024-02-26T04:34:08;18.10;;;8.93;;
54849;SDS011;47660;51.334;12.396;2024-02-26T04:36:33;18.63;;;8.88;;
54849;SDS011;47660;51.334;12.396;2024-02-26T04:38:58;19.73;;;8.88;;
54849;SDS011;47660;51.334;12.396;2024-02-26T04:41:24;20.45;;;9.18;;
54849;SDS011;47660;51.334;12.396;2024-02-26T04:43:49;21.27;;;8.45;;
54849;SDS011;47660;51.334;12.396;2024-02-26T04:46:14;20.17;;;8.73;;
54849;SDS011;47660;51.334;12.396;2024-02-26T04:48:39;21.50;;;9.27;;
54849;SDS011;47660;51.334;12.396;2024-02-26T04:51:06;19.95;;;8.77;;
54849;SDS011;47660;51.334;12.396;2024-02-26T04:53:32;26.05;;;9.70;;
54849;SDS011;47660;51.334;12.396;2024-02-26T04:55:57;20.30;;;9.60;;
54849;SDS011;47660;51.334;12.396;2024-02-26T04:58:22;21.05;;;9.82;;
54849;SDS011;47660;51.334;12.396;2024-02-26T05:00:48;21.48;;;8.75;;
54849;SDS011;47660;51.334;12.396;2024-02-26T05:03:13;23.50;;;9.90;;
54849;SDS011;47660;51.334;12.396;2024-02-26T05:05:40;18.42;;;9.00;;
54849;SDS011;47660;51.334;12.396;2024-02-26T05:08:06;24.83;;;9.45;;
54849;SDS011;47660;51.334;12.396;2024-02-26T05:10:32;22.70;;;8.88;;
54849;SDS011;47660;51.334;12.396;2024-02-26T05:12:58;19.80;;;8.38;;
54849;SDS011;47660;51.334;12.396;2024-02-26T05:15:23;23.80;;;8.88;;
54849;SDS011;47660;51.334;12.396;2024-02-26T05:17:48;21.92;;;9.75;;
54849;SDS011;47660;51.334;12.396;2024-02-26T05:20:14;20.95;;;9.00;;
54849;SDS011;47660;51.334;12.396;2024-02-26T05:22:39;19.55;;;9.35;;
54849;SDS011;47660;51.334;12.396;2024-02-26T05:25:04;18.77;;;9.27;;
54849;SDS011;47660;51.334;12.396;2024-02-26T05:27:30;23.17;;;9.68;;
54849;SDS011;47660;51.334;12.396;2024-02-26T05:29:55;20.65;;;9.52;;
54849;SDS011;47660;51.334;12.396;2024-02-26T05:32:21;24.42;;;9.65;;
54849;SDS011;47660;51.334;12.396;2024-02-26T05:34:46;20.13;;;9.07;;
54849;SDS011;47660;51.334;12.396;2024-02-26T05:37:11;23.27;;;10.32;;
54849;SDS011;47660;51.334;12.396;2024-02-26T05:39:37;22.33;;;9.60;;
54849;SDS011;47660;51.334;12.396;2024-02-26T05:42:02;22.98;;;8.63;;
54849;SDS011;47660;51.334;12.396;2024-02-26T05:44:28;21.60;;;9.43;;
54849;SDS011;47660;51.334;12.396;2024-02-26T05:46:53;20.67;;;9.38;;
54849;SDS011;47660;51.334;12.396;2024-02-26T05:49:19;21.45;;;8.55;;
54849;SDS011;47660;51.334;12.396;2024-02-26T05:51:44;18.15;;;8.05;;
54849;SDS011;47660;51.334;12.396;2024-02-26T05:54:09;19.23;;;7.90;;
54849;SDS011;47660;51.334;12.396;2024-02-26T05:56:35;18.58;;;7.88;;
54849;SDS011;47660;51.334;12.396;2024-02-26T05:59:00;17.67;;;7.93;;
54849;SDS011;47660;51.334;12.396;2024-02-26T06:01:26;21.02;;;9.15;;
54849;SDS011;47660;51.334;12.396;2024-02-26T06:03:51;20.48;;;9.00;;
54849;SDS011;47660;51.334;12.396;2024-02-26T06:06:16;23.65;;;8.80;;
54849;SDS011;47660;51.334;12.396;2024-02-26T06:08:42;19.83;;;8.95;;
54849;SDS011;47660;51.334;12.396;2024-02-26T06:11:08;21.80;;;9.45;;
54849;SDS011;47660;51.334;12.396;2024-02-26T06:13:34;19.35;;;8.85;;
54849;SDS011;47660;51.334;12.396;2024-02-26T06:15:59;18.27;;;9.40;;
54849;SDS011;47660;51.334;12.396;2024-02-26T06:18:25;24.02;;;9.70;;
54849;SDS011;47660;51.334;12.396;2024-02-26T06:20:50;21.40;;;7.90;;
54849;SDS011;47660;51.334;12.396;2024-02-26T06:23:16;16.27;;;8.02;;
54849;SDS011;47660;51.334;12.396;2024-02-26T06:25:41;18.63;;;8.88;;
54849;SDS011;47660;51.334;12.396;2024-02-26T06:28:07;20.10;;;8.30;;
54849;SDS011;47660;51.334;12.396;2024-02-26T06:30:33;20.05;;;8.73;;
54849;SDS011;47660;51.334;12.396;2024-02-26T06:32:58;18.17;;;8.52;;
54849;SDS011;47660;51.334;12.396;2024-02-26T06:35:23;20.85;;;8.80;;
54849;SDS011;47660;51.334;12.396;2024-02-26T06:37:48;16.23;;;8.02;;
54849;SDS011;47660;51.334;12.396;2024-02-26T06:40:17;15.75;;;7.85;;
54849;SDS011;47660;51.334;12.396;2024-02-26T06:42:43;16.75;;;8.02;;
54849;SDS011;47660;51.334;12.396;2024-02-26T06:45:08;19.95;;;8.00;;
54849;SDS011;47660;51.334;12.396;2024-02-26T06:47:34;20.25;;;8.48;;
54849;SDS011;47660;51.334;12.396;2024-02-26T06:49:59;18.00;;;8.70;;
54849;SDS011;47660;51.334;12.396;2024-02-26T06:52:25;13.80;;;7.65;;
54849;SDS011;47660;51.334;12.396;2024-02-26T06:54:51;15.30;;;7.97;;
54849;SDS011;47660;51.334;12.396;2024-02-26T06:57:17;14.98;;;8.07;;
54849;SDS011;47660;51.334;12.396;2024-02-26T06:59:44;17.38;;;7.90;;
54849;SDS011;47660;51.334;12.396;2024-02-26T07:02:11;17.17;;;8.55;;
54849;SDS011;47660;51.334;12.396;2024-02-26T07:04:37;17.95;;;8.02;;
54849;SDS011;47660;51.334;12.396;2024-02-26T07:07:02;15.30;;;8.07;;
54849;SDS011;47660;51.334;12.396;2024-02-26T07:09:28;22.83;;;8.43;;
54849;SDS011;47660;51.334;12.396;2024-02-26T07:11:53;15.48;;;7.72;;
54849;SDS011;47660;51.334;12.396;2024-02-26T07:14:18;20.42;;;8.48;;
54849;SDS011;47660;51.334;12.396;2024-02-26T07:16:43;19.70;;;8.18;;
54849;SDS011;47660;51.334;12.396;2024-02-26T07:19:08;16.65;;;7.28;;
54849;SDS011;47660;51.334;12.396;2024-02-26T07:21:34;15.05;;;7.90;;
54849;SDS011;47660;51.334;12.396;2024-02-26T07:23:59;18.73;;;8.45;;
54849;SDS011;47660;51.334;12.396;2024-02-26T07:26:24;19.40;;;8.23;;
54849;SDS011;47660;51.334;12.396;2024-02-26T07:28:51;16.27;;;7.32;;
54849;SDS011;47660;51.334;12.396;2024-02-26T07:31:17;18.38;;;7.88;;
54849;SDS011;47660;51.334;12.396;2024-02-26T07:33:43;16.52;;;7.57;;
54849;SDS011;47660;51.334;12.396;2024-02-26T07:36:08;14.63;;;6.70;;
54849;SDS011;47660;51.334;12.396;2024-02-26T07:38:33;18.83;;;7.57;;
54849;SDS011;47660;51.334;12.396;2024-02-26T07:40:58;15.85;;;6.97;;
54849;SDS011;47660;51.334;12.396;2024-02-26T07:43:24;13.85;;;6.13;;
54849;SDS011;47660;51.334;12.396;2024-02-26T07:45:49;13.70;;;6.00;;
54849;SDS011;47660;51.334;12.396;2024-02-26T07:48:14;16.85;;;7.75;;
54849;SDS011;47660;51.334;12.396;2024-02-26T07:50:39;11.82;;;6.55;;
54849;SDS011;47660;51.334;12.396;2024-02-26T07:53:05;13.90;;;6.32;;
54849;SDS011;47660;51.334;12.396;2024-02-26T07:55:31;15.85;;;7.00;;
54849;SDS011;47660;51.334;12.396;2024-02-26T07:57:56;13.73;;;7.00;;
54849;SDS011;47660;51.334;12.396;2024-02-26T08:00:21;15.95;;;7.20;;
54849;SDS011;47660;51.334;12.396;2024-02-26T08:02:47;12.15;;;6.38;;
54849;SDS011;47660;51.334;12.396;2024-02-26T08:05:12;15.00;;;6.75;;
54849;SDS011;47660;51.334;12.396;2024-02-26T08:07:37;13.15;;;6.93;;
54849;SDS011;47660;51.334;12.396;2024-02-26T08:10:03;12.80;;;6.40;;
54849;SDS011;47660;51.334;12.396;2024-02-26T08:12:29;11.07;;;5.97;;
54849;SDS011;47660;51.334;12.396;2024-02-26T08:14:54;10.70;;;5.63;;
54849;SDS011;47660;51.334;12.396;2024-02-26T08:17:20;13.27;;;6.13;;
54849;SDS011;47660;51.334;12.396;2024-02-26T08:19:45;14.25;;;6.60;;
54849;SDS011;47660;51.334;12.396;2024-02-26T08:22:11;13.85;;;6.53;;
54849;SDS011;47660;51.334;12.396;2024-02-26T08:24:41;11.70;;;6.47;;
54849;SDS011;47660;51.334;12.396;2024-02-26T08:27:07;11.88;;;6.35;;
54849;SDS011;47660;51.334;12.396;2024-02-26T08:29:32;17.08;;;7.05;;
54849;SDS011;47660;51.334;12.396;2024-02-26T08:31:57;10.30;;;5.90;;
54849;SDS011;47660;51.334;12.396;2024-02-26T08:34:23;13.85;;;6.65;;
54849;SDS011;47660;51.334;12.396;2024-02-26T08:36:48;10.50;;;6.47;;
54849;SDS011;47660;51.334;12.396;2024-02-26T08:39:14;9.77;;;5.80;;
54849;SDS011;47660;51.334;12.396;2024-02-26T08:41:39;10.35;;;6.28;;
54849;SDS011;47660;51.334;12.396;2024-02-26T08:44:04;11.75;;;5.70;;
54849;SDS011;47660;51.334;12.396;2024-02-26T08:46:30;10.63;;;5.68;;
54849;SDS011;47660;51.334;12.396;2024-02-26T08:48:56;10.10;;;5.25;;
54849;SDS011;47660;51.334;12.396;2024-02-26T08:51:21;11.10;;;5.50;;
54849;SDS011;47660;51.334;12.396;2024-02-26T08:53:46;10.23;;;5.75;;
54849;SDS011;47660;51.334;12.396;2024-02-26T08:56:12;10.80;;;5.60;;
54849;SDS011;47660;51.334;12.396;2024-02-26T08:58:41;10.35;;;5.82;;
54849;SDS011;47660;51.334;12.396;2024-02-26T09:01:07;8.45;;;5.70;;
54849;SDS011;47660;51.334;12.396;2024-02-26T09:03:32;8.88;;;5.80;;
54849;SDS011;47660;51.334;12.396;2024-02-26T09:05:57;11.02;;;5.80;;
54849;SDS011;47660;51.334;12.396;2024-02-26T09:08:22;8.40;;;4.90;;
54849;SDS011;47660;51.334;12.396;2024-02-26T09:10:48;9.50;;;5.20;;
54849;SDS011;47660;51.334;12.396;2024-02-26T09:13:14;8.55;;;4.95;;
54849;SDS011;47660;51.334;12.396;2024-02-26T09:15:39;8.48;;;5.03;;
54849;SDS011;47660;51.334;12.396;2024-02-26T09:18:05;9.95;;;4.97;;
54849;SDS011;47660;51.334;12.396;2024-02-26T09:20:30;6.97;;;4.93;;
54849;SDS011;47660;51.334;12.396;2024-02-26T09:22:55;6.80;;;4.65;;
54849;SDS011;47660;51.334;12.396;2024-02-26T09:25:21;8.20;;;4.88;;
54849;SDS011;47660;51.334;12.396;2024-02-26T09:27:46;8.35;;;4.78;;
54849;SDS011;47660;51.334;12.396;2024-02-26T09:30:12;7.15;;;4.28;;
54849;SDS011;47660;51.334;12.396;2024-02-26T09:32:38;9.80;;;4.70;;
54849;SDS011;47660;51.334;12.396;2024-02-26T09:35:04;6.47;;;4.18;;
54849;SDS011;47660;51.334;12.396;2024-02-26T09:37:33;4.97;;;3.72;;
54849;SDS011;47660;51.334;12.396;2024-02-26T09:39:58;7.85;;;4.18;;
54849;SDS011;47660;51.334;12.396;2024-02-26T09:42:27;6.70;;;3.92;;
54849;SDS011;47660;51.334;12.396;2024-02-26T09:44:53;6.93;;;3.85;;
54849;SDS011;47660;51.334;12.396;2024-02-26T09:47:23;6.70;;;3.90;;
54849;SDS011;47660;51.334;12.396;2024-02-26T09:49:48;6.13;;;3.35;;
54849;SDS011;47660;51.334;12.396;2024-02-26T09:52:14;5.88;;;3.55;;
54849;SDS011;47660;51.334;12.396;2024-02-26T09:54:40;6.78;;;3.10;;
54849;SDS011;47660;51.334;12.396;2024-02-26T09:57:06;7.15;;;3.03;;
54849;SDS011;47660;51.334;12.396;2024-02-26T09:59:39;4.80;;;3.20;;
54849;SDS011;47660;51.334;12.396;2024-02-26T10:02:08;6.47;;;3.40;;
54849;SDS011;47660;51.334;12.396;2024-02-26T10:04:36;4.00;;;2.78;;
54849;SDS011;47660;51.334;12.396;2024-02-26T10:07:02;4.97;;;3.20;;
54849;SDS011;47660;51.334;12.396;2024-02-26T10:09:29;6.50;;;3.00;;
54849;SDS011;47660;51.334;12.396;2024-02-26T10:11:56;6.75;;;3.25;;
54849;SDS011;47660;51.334;12.396;2024-02-26T10:14:22;5.13;;;3.10;;
54849;SDS011;47660;51.334;12.396;2024-02-26T10:16:47;5.20;;;3.22;;
54849;SDS011;47660;51.334;12.396;2024-02-26T10:19:24;4.70;;;3.30;;
54849;SDS011;47660;51.334;12.396;2024-02-26T10:21:53;5.18;;;3.10;;
54849;SDS011;47660;51.334;12.396;2024-02-26T10:24:21;4.25;;;2.95;;
54849;SDS011;47660;51.334;12.396;2024-02-26T10:26:46;4.35;;;2.70;;
54849;SDS011;47660;51.334;12.396;2024-02-26T10:29:12;3.45;;;2.60;;
54849;SDS011;47660;51.334;12.396;2024-02-26T10:31:37;5.43;;;3.00;;
54849;SDS011;47660;51.334;12.396;2024-02-26T10:34:02;3.92;;;2.65;;
54849;SDS011;47660;51.334;12.396;2024-02-26T10:36:28;7.53;;;2.88;;
54849;SDS011;47660;51.334;12.396;2024-02-26T10:38:54;4.50;;;2.70;;
54849;SDS011;47660;51.334;12.396;2024-02-26T10:41:19;3.55;;;2.58;;
54849;SDS011;47660;51.334;12.396;2024-02-26T10:43:46;6.07;;;2.58;;
54849;SDS011;47660;51.334;12.396;2024-02-26T10:46:12;5.43;;;2.90;;
54849;SDS011;47660;51.334;12.396;2024-02-26T10:48:37;4.70;;;2.42;;
54849;SDS011;47660;51.334;12.396;2024-02-26T10:51:03;5.80;;;2.78;;
54849;SDS011;47660;51.334;12.396;2024-02-26T10:53:29;4.72;;;3.00;;
54849;SDS011;47660;51.334;12.396;2024-02-26T10:55:57;5.80;;;3.20;;
54849;SDS011;47660;51.334;12.396;2024-02-26T10:58:25;6.30;;;2.95;;
54849;SDS011;47660;51.334;12.396;2024-02-26T11:00:52;5.85;;;2.70;;
54849;SDS011;47660;51.334;12.396;2024-02-26T11:03:17;5.85;;;2.78;;
54849;SDS011;47660;51.334;12.396;2024-02-26T11:05:46;5.80;;;3.17;;
54849;SDS011;47660;51.334;12.396;2024-02-26T11:08:13;4.28;;;2.78;;
54849;SDS011;47660;51.334;12.396;2024-02-26T11:10:39;8.35;;;3.00;;
54849;SDS011;47660;51.334;12.396;2024-02-26T11:13:05;4.20;;;2.95;;
54849;SDS011;47660;51.334;12.396;2024-02-26T11:15:35;7.10;;;3.47;;
54849;SDS011;47660;51.334;12.396;2024-02-26T11:18:01;4.28;;;2.92;;
54849;SDS011;47660;51.334;12.396;2024-02-26T11:20:29;6.53;;;3.20;;
54849;SDS011;47660;51.334;12.396;2024-02-26T11:22:57;5.30;;;3.50;;
54849;SDS011;47660;51.334;12.396;2024-02-26T11:25:22;7.10;;;3.65;;
54849;SDS011;47660;51.334;12.396;2024-02-26T11:27:49;8.57;;;4.25;;
54849;SDS011;47660;51.334;12.396;2024-02-26T11:30:18;5.68;;;3.28;;
54849;SDS011;47660;51.334;12.396;2024-02-26T11:32:45;5.28;;;3.00;;
54849;SDS011;47660;51.334;12.396;2024-02-26T11:35:13;7.97;;;3.58;;
54849;SDS011;47660;51.334;12.396;2024-02-26T11:37:50;7.72;;;3.90;;
54849;SDS011;47660;51.334;12.396;2024-02-26T11:40:17;6.03;;;3.50;;
54849;SDS011;47660;51.334;12.396;2024-02-26T11:42:43;5.85;;;3.50;;
54849;SDS011;47660;51.334;12.396;2024-02-26T11:48:13;10.20;;;4.00;;
54849;SDS011;47660;51.334;12.396;2024-02-26T11:50:52;7.45;;;4.40;;
54849;SDS011;47660;51.334;12.396;2024-02-26T11:53:19;5.68;;;3.55;;
54849;SDS011;47660;51.334;12.396;2024-02-26T11:58:40;8.10;;;3.88;;
54849;SDS011;47660;51.334;12.396;2024-02-26T12:01:35;6.25;;;3.63;;
54849;SDS011;47660;51.334;12.396;2024-02-26T12:04:07;6.10;;;3.55;;
54849;SDS011;47660;51.334;12.396;2024-02-26T12:06:46;9.57;;;4.55;;
54849;SDS011;47660;51.334;12.396;2024-02-26T12:09:13;8.00;;;3.72;;
54849;SDS011;47660;51.334;12.396;2024-02-26T12:11:55;7.60;;;4.30;;
54849;SDS011;47660;51.334;12.396;2024-02-26T12:14:24;11.85;;;4.50;;
54849;SDS011;47660;51.334;12.396;2024-02-26T12:16:50;8.50;;;4.05;;
54849;SDS011;47660;51.334;12.396;2024-02-26T12:19:16;7.13;;;4.15;;
54849;SDS011;47660;51.334;12.396;2024-02-26T12:21:42;17.10;;;5.30;;
54849;SDS011;47660;51.334;12.396;2024-02-26T12:24:11;9.20;;;4.30;;
54849;SDS011;47660;51.334;12.396;2024-02-26T12:26:38;8.43;;;4.75;;
54849;SDS011;47660;51.334;12.396;2024-02-26T12:29:04;6.60;;;4.95;;
54849;SDS011;47660;51.334;12.396;2024-02-26T12:31:29;8.25;;;4.55;;
54849;SDS011;47660;51.334;12.396;2024-02-26T12:33:56;14.40;;;4.55;;
54849;SDS011;47660;51.334;12.396;2024-02-26T12:36:21;8.30;;;4.40;;
54849;SDS011;47660;51.334;12.396;2024-02-26T12:38:48;6.60;;;4.20;;
54849;SDS011;47660;51.334;12.396;2024-02-26T12:41:15;7.97;;;4.65;;
54849;SDS011;47660;51.334;12.396;2024-02-26T12:43:41;9.15;;;4.38;;
54849;SDS011;47660;51.334;12.396;2024-02-26T12:46:06;7.25;;;3.95;;
54849;SDS011;47660;51.334;12.396;2024-02-26T12:48:31;7.93;;;4.28;;
54849;SDS011;47660;51.334;12.396;2024-02-26T12:50:56;9.75;;;4.72;;
54849;SDS011;47660;51.334;12.396;2024-02-26T12:53:22;8.57;;;4.68;;
54849;SDS011;47660;51.334;12.396;2024-02-26T12:55:47;9.13;;;4.90;;
54849;SDS011;47660;51.334;12.396;2024-02-26T12:58:12;7.72;;;4.50;;
54849;SDS011;47660;51.334;12.396;2024-02-26T13:00:39;7.68;;;4.32;;
54849;SDS011;47660;51.334;12.396;2024-02-26T13:03:05;8.20;;;4.63;;
54849;SDS011;47660;51.334;12.396;2024-02-26T13:05:31;7.93;;;4.60;;
54849;SDS011;47660;51.334;12.396;2024-02-26T13:07:56;8.63;;;4.50;;
54849;SDS011;47660;51.334;12.396;2024-02-26T13:10:22;8.80;;;4.22;;
54849;SDS011;47660;51.334;12.396;2024-02-26T13:12:48;8.57;;;4.07;;
54849;SDS011;47660;51.334;12.396;2024-02-26T13:15:17;8.80;;;5.15;;
54849;SDS011;47660;51.334;12.396;2024-02-26T13:17:44;9.00;;;4.53;;
54849;SDS011;47660;51.334;12.396;2024-02-26T13:20:11;8.15;;;3.95;;
54849;SDS011;47660;51.334;12.396;2024-02-26T13:22:37;8.40;;;4.07;;
54849;SDS011;47660;51.334;12.396;2024-02-26T13:25:02;9.73;;;4.63;;
54849;SDS011;47660;51.334;12.396;2024-02-26T13:27:28;8.75;;;4.53;;
54849;SDS011;47660;51.334;12.396;2024-02-26T13:30:10;6.72;;;4.07;;
54849;SDS011;47660;51.334;12.396;2024-02-26T13:32:37;7.38;;;4.32;;
54849;SDS011;47660;51.334;12.396;2024-02-26T13:37:33;6.75;;;4.25;;
54849;SDS011;47660;51.334;12.396;2024-02-26T13:39:59;8.70;;;4.63;;
54849;SDS011;47660;51.334;12.396;2024-02-26T13:42:24;7.10;;;4.30;;
54849;SDS011;47660;51.334;12.396;2024-02-26T13:44:50;9.88;;;5.18;;
54849;SDS011;47660;51.334;12.396;2024-02-26T13:47:15;9.30;;;4.50;;
54849;SDS011;47660;51.334;12.396;2024-02-26T13:49:41;9.98;;;4.75;;
54849;SDS011;47660;51.334;12.396;2024-02-26T13:52:06;7.72;;;4.50;;
54849;SDS011;47660;51.334;12.396;2024-02-26T13:54:31;8.82;;;4.85;;
54849;SDS011;47660;51.334;12.396;2024-02-26T13:56:57;7.55;;;4.40;;
54849;SDS011;47660;51.334;12.396;2024-02-26T13:59:22;7.40;;;4.53;;
54849;SDS011;47660;51.334;12.396;2024-02-26T14:01:48;7.18;;;4.40;;
54849;SDS011;47660;51.334;12.396;2024-02-26T14:04:13;8.02;;;3.97;;
54849;SDS011;47660;51.334;12.396;2024-02-26T14:06:38;8.50;;;4.18;;
54849;SDS011;47660;51.334;12.396;2024-02-26T14:09:04;6.13;;;3.97;;
54849;SDS011;47660;51.334;12.396;2024-02-26T14:11:29;6.97;;;4.05;;
54849;SDS011;47660;51.334;12.396;2024-02-26T14:13:56;7.05;;;4.00;;
54849;SDS011;47660;51.334;12.396;2024-02-26T14:16:21;9.88;;;4.10;;
54849;SDS011;47660;51.334;12.396;2024-02-26T14:18:46;7.68;;;3.75;;
54849;SDS011;47660;51.334;12.396;2024-02-26T14:21:11;6.60;;;4.15;;
54849;SDS011;47660;51.334;12.396;2024-02-26T14:23:37;7.13;;;4.07;;
54849;SDS011;47660;51.334;12.396;2024-02-26T14:26:02;6.53;;;4.03;;
54849;SDS011;47660;51.334;12.396;2024-02-26T14:28:28;6.35;;;3.67;;